Time;durP1;ratioP1;P1;durP2;ratioP2;P2;SDS_P1;SDS_P2;PMS_P1;PMS_P2;Temp;Humidity;BMP_temperature;BMP_pressure;BME280_temperature;BME280_humidity;BME280_pressure;Samples;Min_cycle;Max_cycle;Signal;HPM_P1;HPM_P2
2022/07/23 00:01:16;;;;;;;5.45;2.70;;;21.70;70.10;;;;;;4225856;28;20105;-74
2022/07/23 00:03:18;;;;;;;5.90;2.35;;;21.70;70.00;;;;;;4210137;28;20040;-72
2022/07/23 00:05:19;;;;;;;7.60;2.53;;;21.70;69.90;;;;;;4209058;28;20040;-76
2022/07/23 00:07:20;;;;;;;6.93;2.60;;;21.70;69.80;;;;;;4209586;28;20028;-73
2022/07/23 00:09:21;;;;;;;11.80;4.32;;;21.70;69.60;;;;;;4208941;28;20048;-65
2022/07/23 00:11:22;;;;;;;5.07;3.10;;;21.70;69.60;;;;;;4209625;28;20454;-75
2022/07/23 00:13:23;;;;;;;7.38;2.65;;;21.70;69.40;;;;;;4209699;28;20036;-72
2022/07/23 00:15:24;;;;;;;6.80;2.40;;;21.70;69.20;;;;;;4208955;28;20040;-76
2022/07/23 00:17:26;;;;;;;9.13;3.05;;;21.80;69.20;;;;;;4209024;28;20117;-75
2022/07/23 00:19:28;;;;;;;5.70;2.50;;;21.80;69.10;;;;;;4222577;28;20035;-71
2022/07/23 00:21:30;;;;;;;6.47;3.28;;;21.80;69.00;;;;;;4226779;28;20425;-69
2022/07/23 00:23:31;;;;;;;5.78;2.35;;;21.80;68.90;;;;;;4225694;28;20032;-65
2022/07/23 00:25:32;;;;;;;10.18;3.38;;;21.80;69.50;;;;;;4228698;28;20520;-65
2022/07/23 00:27:33;;;;;;;6.03;3.15;;;21.80;68.90;;;;;;4227045;28;20128;-69
2022/07/23 00:29:34;;;;;;;5.35;2.85;;;21.80;69.40;;;;;;4229791;28;20027;-77
2022/07/23 00:31:35;;;;;;;5.05;2.97;;;21.80;68.70;;;;;;4226641;28;20039;-74
2022/07/23 00:33:37;;;;;;;8.80;2.67;;;21.90;68.80;;;;;;4229332;28;20480;-70
2022/07/23 00:35:43;;;;;;;5.50;2.40;;;21.80;68.70;;;;;;4216762;28;20469;-76
2022/07/23 00:37:44;;;;;;;5.97;2.80;;;21.80;68.70;;;;;;4212770;28;20040;-73
2022/07/23 00:39:45;;;;;;;9.80;2.60;;;21.80;68.70;;;;;;4211714;28;20040;-72
2022/07/23 00:41:46;;;;;;;9.60;2.90;;;21.80;68.70;;;;;;4212123;28;20028;-73
2022/07/23 00:43:47;;;;;;;5.65;2.97;;;21.80;68.70;;;;;;4212305;28;20093;-73
2022/07/23 00:45:49;;;;;;;6.70;3.17;;;21.80;68.70;;;;;;4212175;28;20568;-72
2022/07/23 00:47:50;;;;;;;4.97;2.88;;;21.80;68.80;;;;;;4212855;28;20088;-66
2022/07/23 00:49:51;;;;;;;6.75;3.20;;;21.70;68.80;;;;;;4211304;28;20047;-68
2022/07/23 00:51:53;;;;;;;6.78;2.97;;;21.70;68.80;;;;;;4221835;28;20036;-72
2022/07/23 00:53:54;;;;;;;8.10;2.70;;;21.70;68.90;;;;;;4228372;28;20028;-64
2022/07/23 00:55:55;;;;;;;10.02;3.13;;;21.70;68.90;;;;;;4229274;27;20036;-64
2022/07/23 00:57:58;;;;;;;3.95;2.20;;;21.70;68.80;;;;;;4228042;28;20088;-68
2022/07/23 00:59:59;;;;;;;5.88;2.70;;;21.70;68.90;;;;;;4229165;28;20085;-72
2022/07/23 01:02:00;;;;;;;7.18;2.60;;;21.70;68.90;;;;;;4227965;28;20039;-66
2022/07/23 01:04:02;;;;;;;7.78;2.88;;;21.70;68.80;;;;;;4228813;27;20096;-64
2022/07/23 01:06:03;;;;;;;5.13;2.38;;;21.70;68.80;;;;;;4227889;28;20080;-68
2022/07/23 01:08:06;;;;;;;13.63;3.63;;;21.60;68.80;;;;;;4228675;28;20146;-73
2022/07/23 01:10:30;;;;;;;6.22;2.90;;;21.60;69.00;;;;;;4228089;28;20568;-69
2022/07/23 01:12:28;;;;;;;5.88;2.35;;;21.50;69.10;;;;;;4226945;28;20421;-66
2022/07/23 01:14:29;;;;;;;3.97;2.55;;;21.50;69.40;;;;;;4211134;28;20035;-65
2022/07/23 01:16:30;;;;;;;11.93;3.60;;;21.50;69.40;;;;;;4211906;28;20036;-64
2022/07/23 01:18:32;;;;;;;7.55;2.67;;;21.60;69.50;;;;;;4211460;28;20032;-75
2022/07/23 01:20:33;;;;;;;3.83;2.35;;;21.60;69.30;;;;;;4211327;28;20040;-72
2022/07/23 01:22:34;;;;;;;10.10;3.00;;;21.50;69.20;;;;;;4211908;28;20024;-68
2022/07/23 01:24:36;;;;;;;7.43;2.55;;;21.50;69.40;;;;;;4211410;28;20102;-64
2022/07/23 01:26:38;;;;;;;10.05;2.83;;;21.50;69.40;;;;;;4212093;28;20066;-66
2022/07/23 01:28:39;;;;;;;5.07;2.60;;;21.40;69.50;;;;;;4210862;28;20423;-64
2022/07/23 01:30:40;;;;;;;6.28;2.75;;;21.30;69.50;;;;;;4212020;28;20040;-71
2022/07/23 01:32:41;;;;;;;9.93;3.08;;;21.30;69.60;;;;;;4210694;28;20073;-66
2022/07/23 01:34:43;;;;;;;7.28;2.92;;;21.30;69.50;;;;;;4218937;28;20089;-75
2022/07/23 01:36:44;;;;;;;5.20;2.83;;;21.30;69.50;;;;;;4227176;28;20081;-70
2022/07/23 01:38:46;;;;;;;5.22;2.45;;;21.30;69.50;;;;;;4228317;28;20051;-74
2022/07/23 01:40:47;;;;;;;9.13;2.65;;;21.30;69.50;;;;;;4227022;28;20084;-65
2022/07/23 01:42:48;;;;;;;8.32;2.60;;;21.30;69.40;;;;;;4228480;28;20368;-76
2022/07/23 01:44:49;;;;;;;26.30;5.20;;;21.30;69.40;;;;;;4227598;28;20043;-68
2022/07/23 01:46:50;;;;;;;15.05;5.50;;;21.30;70.30;;;;;;4228670;28;20092;-68
2022/07/23 01:48:52;;;;;;;11.68;5.00;;;21.00;71.50;;;;;;4227854;28;20365;-66
2022/07/23 01:50:53;;;;;;;6.90;4.45;;;20.80;72.60;;;;;;4227042;28;20076;-71
2022/07/23 01:52:54;;;;;;;7.05;3.33;;;20.60;72.90;;;;;;4228050;28;20371;-71
2022/07/23 01:54:55;;;;;;;6.53;3.15;;;20.60;73.10;;;;;;4226967;28;20043;-76
2022/07/23 01:56:57;;;;;;;7.22;2.80;;;20.60;73.30;;;;;;4215795;28;20040;-66
2022/07/23 01:58:58;;;;;;;9.00;2.88;;;20.60;73.50;;;;;;4210572;28;20044;-71
2022/07/23 02:01:00;;;;;;;10.15;3.20;;;20.50;73.50;;;;;;4211623;28;20028;-73
2022/07/23 02:03:01;;;;;;;11.18;3.03;;;20.40;73.80;;;;;;4210548;28;20039;-69
2022/07/23 02:05:03;;;;;;;7.40;2.70;;;20.40;73.90;;;;;;4211546;28;20032;-67
2022/07/23 02:07:05;;;;;;;7.57;3.35;;;20.30;73.90;;;;;;4210306;28;20039;-67
2022/07/23 02:09:06;;;;;;;10.00;3.60;;;20.30;74.00;;;;;;4211370;28;20097;-75
2022/07/23 02:11:07;;;;;;;7.70;2.78;;;20.30;73.90;;;;;;4209980;28;20055;-65
2022/07/23 02:13:08;;;;;;;4.57;2.58;;;20.30;73.90;;;;;;4211175;28;20103;-74
2022/07/23 02:15:09;;;;;;;6.55;2.90;;;20.30;73.60;;;;;;4210503;28;20528;-66
2022/07/23 02:17:11;;;;;;;8.05;2.78;;;20.40;73.60;;;;;;4211760;28;20093;-68
2022/07/23 02:19:12;;;;;;;7.15;3.08;;;20.40;73.40;;;;;;4210895;28;20024;-75
2022/07/23 02:21:13;;;;;;;9.50;4.10;;;20.50;73.30;;;;;;4210509;28;20051;-71
2022/07/23 02:23:14;;;;;;;8.65;2.60;;;20.50;73.10;;;;;;4210572;28;20097;-66
2022/07/23 02:25:16;;;;;;;7.20;3.25;;;20.50;72.80;;;;;;4210497;28;20318;-69
2022/07/23 02:27:17;;;;;;;4.97;2.97;;;20.50;73.10;;;;;;4210841;28;20024;-70
2022/07/23 02:29:18;;;;;;;14.35;3.70;;;20.40;73.20;;;;;;4212385;28;20031;-70
2022/07/23 02:31:20;;;;;;;12.63;2.90;;;20.40;73.50;;;;;;4211180;28;20431;-70
2022/07/23 02:33:21;;;;;;;9.50;3.63;;;20.40;73.90;;;;;;4209637;28;20113;-65
2022/07/23 02:35:23;;;;;;;9.63;3.80;;;20.20;74.40;;;;;;4211092;28;20047;-64
2022/07/23 02:37:24;;;;;;;10.13;3.75;;;20.10;74.80;;;;;;4209838;28;20028;-66
2022/07/23 02:39:25;;;;;;;8.65;3.75;;;20.00;75.20;;;;;;4210924;28;20053;-73
2022/07/23 02:41:26;;;;;;;14.70;4.53;;;20.00;75.60;;;;;;4209826;28;20048;-68
2022/07/23 02:43:27;;;;;;;6.75;2.97;;;19.90;75.80;;;;;;4209531;28;20799;-75
2022/07/23 02:45:29;;;;;;;6.65;3.97;;;19.90;75.60;;;;;;4209661;28;20097;-64
2022/07/23 02:47:31;;;;;;;8.82;3.30;;;20.00;75.80;;;;;;4210392;28;20088;-64
2022/07/23 02:49:33;;;;;;;8.85;3.30;;;20.00;75.90;;;;;;4209590;28;20078;-66
2022/07/23 02:51:34;;;;;;;14.65;3.80;;;20.00;75.80;;;;;;4220293;28;20096;-64
2022/07/23 02:53:35;;;;;;;10.00;3.67;;;20.00;75.90;;;;;;4226702;28;20089;-66
2022/07/23 02:55:37;;;;;;;7.40;3.58;;;20.00;75.80;;;;;;4226643;28;20032;-68
2022/07/23 02:57:38;;;;;;;9.23;3.17;;;19.90;75.70;;;;;;4226801;28;20027;-70
2022/07/23 02:59:39;;;;;;;10.07;3.25;;;19.80;75.90;;;;;;4226401;28;20032;-73
2022/07/23 03:01:40;;;;;;;13.85;5.45;;;19.80;76.40;;;;;;4227074;28;20488;-65
2022/07/23 03:03:41;;;;;;;8.18;3.15;;;19.70;77.00;;;;;;4226357;28;20088;-65
2022/07/23 03:05:42;;;;;;;10.70;4.80;;;19.60;77.20;;;;;;4227375;28;20023;-75
2022/07/23 03:07:44;;;;;;;13.25;3.92;;;19.60;77.50;;;;;;4226035;28;20036;-66
2022/07/23 03:09:45;;;;;;;9.13;3.85;;;19.50;77.70;;;;;;4227489;28;20422;-72
2022/07/23 03:11:46;;;;;;;9.35;3.58;;;19.50;77.80;;;;;;4226209;28;20092;-66
2022/07/23 03:13:47;;;;;;;9.75;5.40;;;19.50;77.90;;;;;;4211670;28;20089;-71
2022/07/23 03:15:49;;;;;;;10.73;4.03;;;19.50;77.90;;;;;;4209429;28;20035;-77
2022/07/23 03:17:51;;;;;;;14.73;5.32;;;19.60;77.90;;;;;;4210390;28;20051;-73
2022/07/23 03:19:52;;;;;;;12.98;4.55;;;19.70;77.80;;;;;;4209399;28;20480;-65
2022/07/23 03:21:53;;;;;;;14.65;4.97;;;19.90;77.70;;;;;;4209767;28;20043;-77
2022/07/23 03:23:54;;;;;;;10.48;4.22;;;20.00;77.40;;;;;;4209541;28;20357;-64
2022/07/23 03:25:56;;;;;;;15.05;4.05;;;20.20;77.10;;;;;;4213858;28;20528;-66
2022/07/23 03:27:57;;;;;;;12.40;4.43;;;20.40;76.60;;;;;;4226769;28;20421;-66
2022/07/23 03:30:00;;;;;;;10.27;3.85;;;20.50;76.30;;;;;;4225801;28;20104;-64
2022/07/23 03:32:02;;;;;;;10.98;4.00;;;20.60;76.20;;;;;;4226851;28;20039;-73
2022/07/23 03:34:03;;;;;;;8.90;3.53;;;20.80;75.70;;;;;;4226042;28;20024;-72
2022/07/23 03:36:05;;;;;;;10.70;4.03;;;21.10;75.20;;;;;;4226916;28;20028;-76
2022/07/23 03:38:06;;;;;;;17.80;5.60;;;21.40;74.70;;;;;;4225476;28;20093;-73
2022/07/23 03:40:08;;;;;;;9.45;3.45;;;21.60;74.50;;;;;;4226921;28;20494;-72
2022/07/23 03:42:11;;;;;;;9.57;4.30;;;21.80;74.40;;;;;;4225745;28;20027;-68
2022/07/23 03:44:12;;;;;;;15.20;3.85;;;21.90;74.20;;;;;;4227081;28;20031;-64
2022/07/23 03:46:13;;;;;;;8.45;3.67;;;22.00;74.10;;;;;;4225839;28;20620;-65
2022/07/23 03:48:14;;;;;;;9.25;3.35;;;22.20;73.80;;;;;;4211297;28;20173;-71
2022/07/23 03:50:15;;;;;;;10.90;4.18;;;22.40;73.60;;;;;;4208876;28;20085;-64
2022/07/23 03:52:17;;;;;;;7.55;3.28;;;22.70;73.20;;;;;;4208469;28;20097;-64
2022/07/23 03:54:18;;;;;;;11.75;4.20;;;22.90;72.40;;;;;;4213071;28;20480;-75
2022/07/23 03:56:19;;;;;;;12.15;4.15;;;23.20;72.10;;;;;;4226201;28;20353;-64
2022/07/23 03:58:20;;;;;;;9.05;3.38;;;23.50;71.60;;;;;;4224242;28;20039;-66
2022/07/23 04:00:21;;;;;;;8.75;3.63;;;23.80;70.90;;;;;;4229026;28;20399;-65
2022/07/23 04:02:23;;;;;;;9.20;3.53;;;24.20;70.20;;;;;;4229859;28;20072;-71
2022/07/23 04:04:24;;;;;;;10.27;3.55;;;24.50;69.60;;;;;;4229078;28;20043;-71
2022/07/23 04:06:25;;;;;;;15.43;3.58;;;24.70;69.00;;;;;;4228737;28;20065;-70
2022/07/23 04:08:26;;;;;;;10.55;4.10;;;24.60;68.90;;;;;;4218831;27;20047;-67
2022/07/23 04:10:27;;;;;;;11.27;3.30;;;24.40;69.40;;;;;;4213180;28;20482;-72
2022/07/23 04:12:28;;;;;;;9.52;3.83;;;24.60;69.20;;;;;;4212072;28;20020;-67
2022/07/23 04:14:29;;;;;;;15.00;3.80;;;24.90;68.90;;;;;;4213241;28;20044;-69
2022/07/23 04:16:31;;;;;;;11.65;3.30;;;25.30;68.30;;;;;;4217377;28;20035;-66
2022/07/23 04:18:32;;;;;;;11.25;4.00;;;25.70;67.70;;;;;;4230327;28;20025;-65
2022/07/23 04:20:33;;;;;;;13.27;3.78;;;26.00;66.90;;;;;;4228579;28;20089;-65
2022/07/23 04:22:34;;;;;;;17.20;3.40;;;26.40;66.60;;;;;;4229386;28;20065;-71
2022/07/23 04:24:36;;;;;;;10.15;3.97;;;26.70;65.90;;;;;;4228964;28;20032;-64
2022/07/23 04:26:37;;;;;;;12.77;3.85;;;26.70;65.80;;;;;;4228830;28;20077;-74
2022/07/23 04:28:38;;;;;;;14.25;5.78;;;26.80;65.60;;;;;;4227275;28;20036;-65
2022/07/23 04:30:39;;;;;;;8.60;3.92;;;27.00;65.40;;;;;;4228688;28;20031;-66
2022/07/23 04:32:40;;;;;;;11.98;4.45;;;27.20;65.10;;;;;;4229470;28;20488;-70
2022/07/23 04:34:42;;;;;;;13.90;5.07;;;27.30;64.90;;;;;;4214820;28;20073;-67
2022/07/23 04:36:43;;;;;;;15.15;4.60;;;27.60;64.60;;;;;;4229384;28;20088;-68
2022/07/23 04:38:44;;;;;;;9.43;3.55;;;27.50;64.30;;;;;;4228253;28;20073;-68
2022/07/23 04:40:45;;;;;;;8.20;4.22;;;27.70;64.20;;;;;;4229379;28;20020;-66
2022/07/23 04:42:46;;;;;;;10.77;4.13;;;28.20;63.60;;;;;;4228047;28;20036;-67
2022/07/23 04:44:47;;;;;;;11.95;3.78;;;28.40;63.00;;;;;;4229377;28;20757;-68
2022/07/23 04:46:49;;;;;;;12.07;4.20;;;28.80;62.50;;;;;;4228385;28;20024;-67
2022/07/23 04:48:50;;;;;;;10.43;4.13;;;29.30;62.00;;;;;;4229262;28;20039;-71
2022/07/23 04:50:51;;;;;;;12.80;3.80;;;29.80;61.40;;;;;;4214364;28;20473;-68
2022/07/23 04:52:52;;;;;;;9.40;3.88;;;30.30;60.80;;;;;;4213523;28;20097;-69
2022/07/23 04:54:53;;;;;;;13.57;4.38;;;30.40;60.20;;;;;;4228094;28;20020;-71
2022/07/23 04:56:54;;;;;;;11.88;4.20;;;30.70;59.70;;;;;;4227506;28;20035;-73
2022/07/23 04:58:55;;;;;;;18.02;4.93;;;31.00;59.50;;;;;;4228189;28;20020;-70
2022/07/23 05:00:57;;;;;;;15.20;4.45;;;30.80;59.40;;;;;;4211775;28;20032;-67
2022/07/23 05:02:58;;;;;;;19.10;4.70;;;31.10;59.30;;;;;;4212030;28;20032;-71
2022/07/23 05:05:00;;;;;;;19.63;4.45;;;31.20;59.00;;;;;;4211367;28;20036;-72
2022/07/23 05:07:02;;;;;;;12.95;4.78;;;31.30;58.80;;;;;;4212284;28;20043;-73
2022/07/23 05:09:03;;;;;;;14.25;4.95;;;31.40;58.60;;;;;;4194163;28;20048;-69
2022/07/23 05:11:04;;;;;;;19.55;5.07;;;31.30;59.10;;;;;;4198272;28;20098;-70
2022/07/23 05:13:05;;;;;;;18.20;4.50;;;31.40;58.40;;;;;;4227713;28;20490;-68
2022/07/23 05:15:07;;;;;;;16.63;4.93;;;31.40;58.00;;;;;;4221510;28;20430;-67
2022/07/23 05:17:08;;;;;;;19.88;4.60;;;31.10;58.10;;;;;;4210677;28;20070;-67
2022/07/23 05:19:09;;;;;;;15.32;4.22;;;30.80;58.30;;;;;;4212207;28;20054;-69
2022/07/23 05:21:10;;;;;;;17.85;4.28;;;30.80;58.70;;;;;;4210880;28;20092;-68
2022/07/23 05:23:11;;;;;;;25.42;4.80;;;30.40;58.50;;;;;;4212562;28;20101;-71
2022/07/23 05:25:13;;;;;;;14.02;3.92;;;30.70;58.50;;;;;;4226436;28;20039;-67
2022/07/23 05:27:14;;;;;;;16.10;4.43;;;31.10;58.10;;;;;;4227435;28;20020;-73
2022/07/23 05:29:15;;;;;;;15.13;4.18;;;31.40;57.40;;;;;;4211505;28;20545;-69
2022/07/23 05:31:17;;;;;;;15.27;4.40;;;31.50;57.30;;;;;;4211003;28;20044;-73
2022/07/23 05:33:19;;;;;;;12.18;4.82;;;31.30;57.00;;;;;;4211278;28;20020;-69
2022/07/23 05:35:20;;;;;;;12.85;4.30;;;31.20;57.10;;;;;;4209344;28;20040;-70
2022/07/23 05:37:22;;;;;;;12.80;4.35;;;31.30;57.70;;;;;;4209673;28;20492;-72
2022/07/23 05:39:23;;;;;;;14.23;3.70;;;31.50;57.30;;;;;;4210720;28;20093;-71
2022/07/23 05:41:24;;;;;;;11.95;4.70;;;31.50;57.30;;;;;;4211590;28;20115;-72
2022/07/23 05:43:25;;;;;;;9.52;4.25;;;31.30;57.40;;;;;;4210406;28;20032;-67
2022/07/23 05:45:26;;;;;;;16.17;4.65;;;30.90;57.80;;;;;;4211555;28;20422;-72
2022/07/23 05:47:28;;;;;;;19.20;4.38;;;30.90;57.90;;;;;;4210818;28;20439;-67
2022/07/23 05:49:29;;;;;;;13.63;4.30;;;30.60;58.00;;;;;;4217204;28;20463;-69
2022/07/23 05:51:30;;;;;;;10.73;3.83;;;30.40;58.20;;;;;;4223204;28;20423;-68
2022/07/23 05:53:32;;;;;;;14.63;4.63;;;30.60;58.90;;;;;;4211374;28;20050;-72
2022/07/23 05:55:33;;;;;;;23.13;5.57;;;30.50;58.20;;;;;;4214138;28;20032;-75
2022/07/23 05:57:35;;;;;;;16.85;4.20;;;30.60;58.20;;;;;;4227641;27;20548;-70
2022/07/23 05:59:37;;;;;;;16.13;3.67;;;30.60;58.00;;;;;;4226869;28;20024;-70
2022/07/23 06:01:38;;;;;;;12.15;3.47;;;30.80;57.80;;;;;;4227235;28;20105;-69
2022/07/23 06:03:39;;;;;;;14.90;4.45;;;30.80;57.60;;;;;;4227353;28;20472;-68
2022/07/23 06:05:40;;;;;;;10.65;3.80;;;30.80;57.70;;;;;;4226936;28;20047;-72
2022/07/23 06:07:41;;;;;;;9.35;4.07;;;30.90;57.70;;;;;;4220785;28;20442;-67
2022/07/23 06:09:42;;;;;;;19.25;3.88;;;31.10;57.40;;;;;;4216790;27;20415;-73
2022/07/23 06:11:44;;;;;;;8.40;4.38;;;31.00;57.30;;;;;;4212297;28;20048;-69
2022/07/23 06:13:45;;;;;;;11.48;3.92;;;31.50;57.30;;;;;;4209762;28;20108;-68
2022/07/23 06:15:46;;;;;;;10.65;3.60;;;31.80;56.80;;;;;;4211881;28;20054;-68
2022/07/23 06:17:48;;;;;;;15.57;3.67;;;32.00;56.50;;;;;;4208904;28;20405;-70
2022/07/23 06:19:49;;;;;;;12.52;4.15;;;32.00;56.30;;;;;;4209412;28;20478;-67
2022/07/23 06:21:50;;;;;;;10.98;3.83;;;32.00;56.30;;;;;;4210687;28;20085;-66
2022/07/23 06:23:51;;;;;;;16.42;3.90;;;32.40;56.10;;;;;;4206963;28;20032;-68
2022/07/23 06:25:53;;;;;;;10.32;4.15;;;32.50;55.70;;;;;;4209447;28;20048;-67
2022/07/23 06:27:54;;;;;;;7.60;2.58;;;32.30;55.50;;;;;;4210867;28;20039;-67
2022/07/23 06:29:55;;;;;;;5.93;3.00;;;32.20;55.10;;;;;;4223077;28;20092;-66
2022/07/23 06:31:56;;;;;;;8.68;3.30;;;32.00;55.10;;;;;;4211213;27;20056;-69
2022/07/23 06:33:57;;;;;;;8.05;3.03;;;31.80;55.00;;;;;;4225065;28;20031;-69
2022/07/23 06:35:59;;;;;;;9.95;3.13;;;31.80;55.30;;;;;;4223842;28;20475;-66
2022/07/23 06:38:00;;;;;;;11.52;2.78;;;31.60;55.80;;;;;;4216268;28;20136;-68
2022/07/23 06:40:02;;;;;;;11.07;3.67;;;31.50;55.10;;;;;;4224338;28;20378;-66
2022/07/23 06:42:03;;;;;;;11.80;3.30;;;31.50;55.10;;;;;;4226528;28;20031;-64
2022/07/23 06:44:05;;;;;;;12.38;3.63;;;31.30;55.80;;;;;;4225569;28;20143;-71
2022/07/23 06:46:06;;;;;;;10.98;4.13;;;31.40;56.00;;;;;;4226105;27;20408;-71
2022/07/23 06:48:07;;;;;;;11.38;3.78;;;31.80;55.80;;;;;;4209907;28;20044;-67
2022/07/23 06:50:08;;;;;;;7.38;3.53;;;32.20;55.50;;;;;;4212777;28;20077;-70
2022/07/23 06:52:10;;;;;;;15.90;4.40;;;31.90;55.30;;;;;;4222187;28;20035;-67
2022/07/23 06:54:11;;;;;;;10.95;4.00;;;31.70;55.50;;;;;;4212332;28;20032;-71
2022/07/23 06:56:12;;;;;;;11.10;4.00;;;31.30;55.70;;;;;;4225129;28;20043;-69
2022/07/23 06:58:14;;;;;;;7.93;3.33;;;30.90;55.80;;;;;;4208903;28;20032;-71
2022/07/23 07:00:15;;;;;;;8.13;3.75;;;30.80;56.20;;;;;;4203090;28;20038;-69
2022/07/23 07:02:16;;;;;;;11.75;4.07;;;31.00;56.30;;;;;;4208470;28;20554;-69
2022/07/23 07:04:17;;;;;;;10.77;3.38;;;31.00;56.20;;;;;;4207545;28;20484;-66
2022/07/23 07:06:19;;;;;;;17.08;4.07;;;30.90;56.30;;;;;;4208911;28;20092;-69
2022/07/23 07:08:20;;;;;;;6.60;2.75;;;30.40;56.70;;;;;;4208308;28;20036;-71
2022/07/23 07:10:21;;;;;;;19.73;3.10;;;30.30;57.10;;;;;;4212993;28;20113;-68
2022/07/23 07:12:22;;;;;;;8.68;3.20;;;30.10;57.30;;;;;;4210830;28;20052;-68
2022/07/23 07:14:23;;;;;;;14.20;3.53;;;30.00;57.30;;;;;;4207570;28;20089;-67
2022/07/23 07:16:25;;;;;;;5.43;2.70;;;30.10;57.20;;;;;;4210145;28;20109;-71
2022/07/23 07:18:27;;;;;;;11.63;3.25;;;30.10;57.00;;;;;;4210565;28;20056;-67
2022/07/23 07:20:28;;;;;;;8.20;2.60;;;30.40;57.00;;;;;;4220157;28;20591;-69
2022/07/23 07:22:29;;;;;;;13.75;2.95;;;30.40;57.10;;;;;;4208481;28;20040;-68
2022/07/23 07:24:30;;;;;;;9.00;2.60;;;30.20;56.30;;;;;;4210099;28;20533;-71
2022/07/23 07:26:32;;;;;;;16.25;3.20;;;30.10;56.40;;;;;;4207637;28;20028;-69
2022/07/23 07:28:33;;;;;;;13.55;2.85;;;30.30;56.50;;;;;;4209552;28;20022;-68
2022/07/23 07:30:34;;;;;;;12.90;3.00;;;30.30;56.30;;;;;;4209047;28;20024;-70
2022/07/23 07:32:36;;;;;;;9.32;3.50;;;30.20;56.30;;;;;;4209490;28;20040;-69
2022/07/23 07:34:37;;;;;;;14.02;3.55;;;30.30;56.30;;;;;;4213643;28;20024;-66
2022/07/23 07:36:38;;;;;;;12.20;3.33;;;30.30;56.10;;;;;;4215516;28;20028;-68
2022/07/23 07:38:39;;;;;;;14.80;3.60;;;30.40;56.40;;;;;;4222633;27;20100;-70
2022/07/23 07:40:41;;;;;;;10.07;3.92;;;30.20;56.60;;;;;;4217345;28;20495;-66
2022/07/23 07:42:53;;;;;;;10.02;2.85;;;30.40;56.90;;;;;;4232265;28;20152;-66
2022/07/23 07:44:54;;;;;;;7.45;3.40;;;30.30;57.30;;;;;;4228826;27;20048;-69
2022/07/23 07:46:55;;;;;;;12.95;3.13;;;30.50;57.50;;;;;;4231370;27;20061;-68
2022/07/23 07:48:56;;;;;;;12.10;3.25;;;30.40;57.90;;;;;;4231319;28;20418;-67
2022/07/23 07:50:58;;;;;;;8.40;3.13;;;30.50;58.10;;;;;;4231948;28;20484;-67
2022/07/23 07:52:59;;;;;;;12.07;4.20;;;30.70;58.10;;;;;;4230315;27;20369;-67
2022/07/23 07:55:00;;;;;;;12.60;3.85;;;31.00;57.90;;;;;;4232253;27;20434;-68
2022/07/23 07:57:01;;;;;;;7.60;3.85;;;31.00;57.80;;;;;;4229398;28;20051;-67
2022/07/23 07:59:02;;;;;;;10.20;3.38;;;30.90;58.20;;;;;;4231853;28;20073;-67
2022/07/23 08:01:04;;;;;;;8.65;3.65;;;30.90;58.30;;;;;;4231042;27;20107;-65
2022/07/23 08:03:05;;;;;;;7.57;3.33;;;31.10;58.20;;;;;;4232065;27;20812;-65
2022/07/23 08:05:06;;;;;;;10.20;4.03;;;31.20;58.20;;;;;;4230936;27;20442;-65
2022/07/23 08:07:07;;;;;;;9.95;3.22;;;31.20;58.30;;;;;;4231544;27;20047;-67
2022/07/23 08:09:09;;;;;;;7.97;3.28;;;31.30;58.20;;;;;;4231303;27;20047;-67
2022/07/23 08:11:10;;;;;;;11.60;4.32;;;31.50;58.00;;;;;;4231335;28;20376;-66
2022/07/23 08:13:15;;;;;;;8.55;3.60;;;31.40;58.00;;;;;;4231749;27;20056;-65
2022/07/23 08:15:19;;;;;;;15.10;3.55;;;31.30;58.20;;;;;;4231094;27;20039;-66
2022/07/23 08:17:20;;;;;;;4.93;2.80;;;31.30;58.20;;;;;;4231953;28;20024;-67
2022/07/23 08:19:22;;;;;;;7.70;3.45;;;31.40;58.20;;;;;;4231419;27;20108;-68
2022/07/23 08:21:23;;;;;;;6.57;3.08;;;31.40;58.20;;;;;;4232286;27;20031;-65
2022/07/23 08:23:24;;;;;;;7.95;3.65;;;31.60;58.30;;;;;;4230771;28;20064;-66
2022/07/23 08:25:34;;;;;;;9.45;3.05;;;31.60;58.30;;;;;;4231997;28;20453;-66
2022/07/23 08:27:35;;;;;;;9.80;3.40;;;31.50;58.60;;;;;;4230589;28;20049;-66
2022/07/23 08:29:36;;;;;;;8.43;3.05;;;31.50;58.60;;;;;;4231792;27;20499;-66
2022/07/23 08:31:37;;;;;;;10.02;3.53;;;31.90;58.40;;;;;;4230820;28;20076;-68
2022/07/23 08:33:38;;;;;;;14.88;4.05;;;32.10;58.10;;;;;;4231869;27;20051;-69
2022/07/23 08:35:46;;;;;;;12.52;3.47;;;32.00;58.00;;;;;;4230746;28;20027;-65
2022/07/23 08:37:47;;;;;;;11.32;3.28;;;32.10;58.10;;;;;;4231569;28;20027;-66
2022/07/23 08:39:48;;;;;;;6.82;3.33;;;32.20;57.80;;;;;;4230814;27;20495;-69
2022/07/23 08:41:50;;;;;;;10.75;3.67;;;32.20;57.90;;;;;;4231417;27;20031;-67
2022/07/23 08:43:52;;;;;;;10.35;3.47;;;32.20;58.00;;;;;;4231032;27;20032;-66
2022/07/23 08:45:56;;;;;;;6.50;3.22;;;32.30;58.20;;;;;;4227603;27;20040;-66
2022/07/23 08:47:58;;;;;;;13.27;3.30;;;32.40;58.10;;;;;;4228667;28;20081;-65
2022/07/23 08:50:00;;;;;;;7.43;3.63;;;32.30;58.10;;;;;;4228307;28;20019;-65
2022/07/23 08:52:02;;;;;;;8.25;3.25;;;32.30;58.10;;;;;;4228790;28;20043;-66
2022/07/23 08:54:04;;;;;;;9.18;3.30;;;32.50;58.20;;;;;;4228090;28;20107;-65
2022/07/23 08:56:05;;;;;;;11.48;3.65;;;32.50;58.10;;;;;;4229023;28;20035;-66
2022/07/23 08:58:06;;;;;;;11.82;4.30;;;32.40;58.10;;;;;;4227870;28;20092;-65
2022/07/23 09:00:08;;;;;;;8.27;3.10;;;32.50;58.30;;;;;;4229306;28;20083;-68
2022/07/23 09:02:09;;;;;;;15.93;3.85;;;32.50;58.30;;;;;;4227572;28;20089;-64
2022/07/23 09:04:11;;;;;;;10.80;3.25;;;32.50;58.20;;;;;;4228453;28;20093;-68
2022/07/23 09:06:12;;;;;;;7.88;3.20;;;32.70;58.00;;;;;;4227746;28;20035;-67
2022/07/23 09:08:14;;;;;;;15.10;3.72;;;32.90;57.90;;;;;;4228457;28;20494;-67
2022/07/23 09:10:15;;;;;;;6.85;3.78;;;33.00;57.80;;;;;;4227928;28;20390;-69
2022/07/23 09:12:16;;;;;;;8.65;3.53;;;33.20;57.70;;;;;;4228108;28;20387;-68
2022/07/23 09:14:48;;;;;;;13.00;3.75;;;33.30;57.40;;;;;;4226146;28;20032;-67
2022/07/23 09:16:50;;;;;;;9.57;3.45;;;33.20;57.00;;;;;;4228028;28;20020;-67
2022/07/23 09:18:58;;;;;;;7.35;2.70;;;33.20;57.30;;;;;;4228054;28;20104;-68
2022/07/23 09:21:10;;;;;;;10.15;3.60;;;33.10;57.20;;;;;;4228087;28;20028;-67
2022/07/23 09:23:11;;;;;;;6.95;3.35;;;32.90;57.00;;;;;;4227457;28;20043;-68
2022/07/23 09:25:15;;;;;;;5.80;3.33;;;32.90;57.00;;;;;;4228475;28;20036;-68
2022/07/23 09:27:17;;;;;;;7.00;3.22;;;32.90;56.90;;;;;;4227902;28;20024;-66
2022/07/23 09:29:23;;;;;;;8.65;3.08;;;32.90;56.60;;;;;;4227917;28;20031;-68
2022/07/23 09:31:25;;;;;;;14.27;3.25;;;32.90;56.60;;;;;;4227707;28;20474;-67
2022/07/23 09:33:27;;;;;;;7.93;3.20;;;33.10;56.50;;;;;;4227577;28;20437;-66
2022/07/23 09:35:48;;;;;;;8.32;3.28;;;33.30;56.30;;;;;;4228033;28;20036;-66
2022/07/23 09:38:02;;;;;;;10.18;3.83;;;33.40;55.70;;;;;;4227629;28;20902;-67
2022/07/23 09:40:09;;;;;;;6.60;3.65;;;33.40;55.80;;;;;;4227715;28;20128;-68
2022/07/23 09:42:25;;;;;;;7.28;3.28;;;33.40;56.10;;;;;;4227627;28;20039;-68
2022/07/23 09:44:27;;;;;;;7.13;3.33;;;33.60;55.70;;;;;;4227780;28;20081;-67
2022/07/23 09:46:28;;;;;;;10.55;3.85;;;33.50;55.70;;;;;;4227519;28;20027;-69
2022/07/23 09:48:29;;;;;;;9.05;5.25;;;33.60;55.70;;;;;;4228267;28;20464;-68
2022/07/23 09:50:30;;;;;;;9.40;3.75;;;33.80;55.50;;;;;;4225784;28;20069;-64
2022/07/23 09:52:42;;;;;;;12.63;3.22;;;33.90;55.20;;;;;;4228056;28;20466;-65
2022/07/23 09:54:43;;;;;;;6.18;3.17;;;34.00;55.10;;;;;;4227084;28;20043;-69
2022/07/23 09:56:44;;;;;;;8.52;3.38;;;34.00;55.20;;;;;;4227691;28;20061;-66
2022/07/23 09:58:50;;;;;;;11.25;3.70;;;33.90;55.20;;;;;;4226997;28;20061;-68
2022/07/23 10:00:51;;;;;;;7.07;3.28;;;33.90;55.20;;;;;;4227891;28;20047;-66
2022/07/23 10:02:53;;;;;;;12.13;3.28;;;33.80;55.10;;;;;;4226712;28;20085;-65
2022/07/23 10:04:55;;;;;;;10.23;3.35;;;33.70;55.30;;;;;;4227737;28;20387;-65
2022/07/23 10:06:58;;;;;;;9.57;3.53;;;33.70;55.20;;;;;;4226766;28;20109;-64
2022/07/23 10:09:01;;;;;;;14.25;3.92;;;33.80;55.00;;;;;;4227739;28;20093;-66
2022/07/23 10:11:03;;;;;;;5.32;3.45;;;33.90;54.90;;;;;;4226541;28;20035;-66
2022/07/23 10:15:25;;;;;;;6.65;3.25;;;33.90;54.80;;;;;;4226703;28;20076;-67
2022/07/23 10:17:30;;;;;;;9.00;3.28;;;34.00;54.40;;;;;;4227605;28;20456;-69
2022/07/23 10:19:32;;;;;;;10.48;3.50;;;34.10;53.80;;;;;;4226877;28;20096;-67
2022/07/23 10:21:52;;;;;;;8.07;3.47;;;34.10;53.80;;;;;;4227553;28;20035;-65
2022/07/23 10:24:25;;;;;;;4.32;2.95;;;34.10;53.20;;;;;;4226412;28;20414;-67
2022/07/23 10:26:29;;;;;;;6.80;3.17;;;34.30;52.50;;;;;;4213023;28;20112;-66
2022/07/23 10:28:48;;;;;;;12.25;3.35;;;34.30;53.30;;;;;;4226307;28;20864;-67
2022/07/23 10:30:55;;;;;;;5.80;3.13;;;34.30;53.30;;;;;;4227668;28;20023;-65
2022/07/23 10:33:19;;;;;;;8.32;3.42;;;34.50;53.10;;;;;;4224449;28;20092;-66